Time;durP1;ratioP1;P1;durP2;ratioP2;P2;SDS_P1;SDS_P2;PMS_P1;PMS_P2;Temp;Humidity;BMP_temperature;BMP_pressure;BME280_temperature;BME280_humidity;BME280_pressure;Samples;Min_cycle;Max_cycle;Signal;HPM_P1;HPM_P2
2023/08/23 00:01:32;;;;;;;10.32;6.47;;;;;;;30.24;40.33;99739.38;5091542;28;20012;-41
2023/08/23 00:03:58;;;;;;;10.63;7.05;;;;;;;30.09;40.22;99740.78;5091512;28;20016;-39
2023/08/23 00:06:23;;;;;;;10.35;6.82;;;;;;;30.04;40.68;99741.75;5091098;28;20350;-40
2023/08/23 00:08:49;;;;;;;10.07;6.80;;;;;;;30.06;40.70;99735.94;5091569;28;20062;-40
2023/08/23 00:11:14;;;;;;;7.07;6.43;;;;;;;30.09;40.38;99743.50;5091300;28;20480;-40
2023/08/23 00:13:40;;;;;;;10.73;6.55;;;;;;;30.08;40.64;99739.16;5091434;28;20024;-41
2023/08/23 00:16:06;;;;;;;7.40;6.60;;;;;;;30.03;41.01;99740.16;5091328;28;20020;-41
2023/08/23 00:18:31;;;;;;;9.93;6.75;;;;;;;30.01;40.08;99740.50;5091333;28;20012;-39
2023/08/23 00:20:56;;;;;;;7.53;6.45;;;;;;;29.97;40.57;99736.81;5091212;28;20024;-39
2023/08/23 00:23:22;;;;;;;9.25;6.43;;;;;;;30.01;40.14;99740.50;5091162;28;20042;-39
2023/08/23 00:25:47;;;;;;;8.35;6.78;;;;;;;29.94;40.15;99742.97;5090736;28;20015;-40
2023/08/23 00:28:15;;;;;;;7.85;6.32;;;;;;;29.90;40.15;99739.28;5090949;28;20105;-40
2023/08/23 00:30:54;;;;;;;9.43;6.63;;;;;;;29.89;40.78;99743.19;5090947;28;20044;-42
2023/08/23 00:33:20;;;;;;;8.65;6.63;;;;;;;29.89;40.83;99743.19;5090720;28;20023;-40
2023/08/23 00:35:45;;;;;;;9.43;6.80;;;;;;;29.82;41.48;99749.19;5090950;28;20031;-41
2023/08/23 00:38:12;;;;;;;7.40;6.68;;;;;;;29.84;41.54;99746.09;5090399;28;20481;-40
2023/08/23 00:40:37;;;;;;;11.55;6.70;;;;;;;29.80;41.49;99750.66;5090737;28;20027;-40
2023/08/23 00:43:06;;;;;;;7.68;6.47;;;;;;;29.76;41.56;99750.50;5090596;28;20445;-42
2023/08/23 00:45:37;;;;;;;11.20;7.07;;;;;;;29.81;41.63;99747.56;5090724;28;20052;-40
2023/08/23 00:48:03;;;;;;;10.23;6.63;;;;;;;29.81;41.22;99752.25;5090552;28;20034;-40
2023/08/23 00:50:31;;;;;;;9.40;6.72;;;;;;;29.72;41.70;99752.28;5090917;28;20047;-41
2023/08/23 00:52:56;;;;;;;9.27;6.57;;;;;;;29.68;41.73;99754.06;5090540;28;20499;-40
2023/08/23 00:55:22;;;;;;;8.02;6.80;;;;;;;29.67;41.76;99755.22;5090456;28;20020;-40
2023/08/23 00:57:49;;;;;;;7.60;6.75;;;;;;;29.66;42.09;99761.81;5090325;28;20441;-41
2023/08/23 01:00:16;;;;;;;9.15;6.97;;;;;;;29.58;42.46;99751.72;5090337;28;20035;-41
2023/08/23 01:02:41;;;;;;;7.90;6.72;;;;;;;29.62;42.08;99758.97;5090397;28;20105;-40
2023/08/23 01:05:07;;;;;;;10.48;6.88;;;;;;;29.59;42.22;99756.88;5090588;28;20438;-40
2023/08/23 01:08:05;;;;;;;9.70;6.65;;;;;;;29.63;42.24;99754.28;5090643;28;20026;-40
2023/08/23 01:10:48;;;;;;;10.10;7.05;;;;;;;29.55;42.26;99761.41;5090432;28;20043;-40
2023/08/23 01:13:27;;;;;;;7.88;7.07;;;;;;;29.48;42.51;99758.38;5090503;28;20047;-40
2023/08/23 01:15:56;;;;;;;8.95;7.07;;;;;;;29.46;42.85;99755.16;5090642;28;20042;-40
2023/08/23 01:18:23;;;;;;;7.85;7.03;;;;;;;29.41;42.86;99758.06;5090398;28;20111;-41
2023/08/23 01:20:50;;;;;;;9.98;7.20;;;;;;;29.43;43.00;99758.53;5090250;28;20031;-40
2023/08/23 01:23:16;;;;;;;12.73;7.20;;;;;;;29.37;42.98;99757.94;5090061;28;20390;-39
2023/08/23 01:25:51;;;;;;;8.82;7.00;;;;;;;29.26;43.35;99753.16;5090328;28;20054;-39
2023/08/23 01:28:18;;;;;;;10.25;7.63;;;;;;;29.26;43.42;99753.16;5090477;28;20056;-40
2023/08/23 01:30:44;;;;;;;7.13;6.43;;;;;;;29.17;43.70;99751.25;5090244;28;20028;-39
2023/08/23 01:33:18;;;;;;;9.20;7.18;;;;;;;29.07;44.17;99751.56;5090102;28;20093;-41
2023/08/23 01:36:20;;;;;;;11.07;7.22;;;;;;;29.08;44.08;99746.91;5090097;28;20123;-40
2023/08/23 01:38:47;;;;;;;8.25;6.75;;;;;;;29.12;43.92;99758.81;5061646;28;20113;-40
2023/08/23 01:41:14;;;;;;;8.18;7.10;;;;;;;29.00;44.36;99756.75;5090248;28;20039;-39
2023/08/23 01:43:39;;;;;;;8.77;7.80;;;;;;;29.03;44.22;99758.81;5090178;28;20392;-39
2023/08/23 01:46:05;;;;;;;10.35;7.28;;;;;;;28.99;44.31;99753.19;5089969;28;20028;-41
2023/08/23 01:48:30;;;;;;;8.60;6.95;;;;;;;28.86;44.58;99737.75;5090510;28;20024;-38
2023/08/23 01:50:56;;;;;;;10.70;7.63;;;;;;;28.90;44.58;99749.69;5093864;28;20024;-40
2023/08/23 01:53:21;;;;;;;10.20;7.28;;;;;;;28.90;44.71;99748.88;5093812;28;20027;-39
2023/08/23 01:55:47;;;;;;;12.02;7.72;;;;;;;28.94;44.78;99755.31;5093683;28;20020;-39
2023/08/23 01:58:12;;;;;;;11.55;7.63;;;;;;;28.86;44.80;99756.94;5093950;28;20028;-40
2023/08/23 02:00:37;;;;;;;9.27;7.70;;;;;;;28.86;45.02;99756.94;5093817;28;20016;-40
2023/08/23 02:03:03;;;;;;;10.65;7.53;;;;;;;28.83;45.51;99757.59;5093493;28;20123;-40
2023/08/23 02:05:31;;;;;;;9.18;7.68;;;;;;;28.80;45.33;99756.31;5093879;28;20020;-40
2023/08/23 02:07:57;;;;;;;9.63;7.47;;;;;;;28.80;45.56;99758.25;5093689;28;20082;-41
2023/08/23 02:10:22;;;;;;;10.82;7.68;;;;;;;28.80;45.25;99755.50;5093887;28;20032;-40
2023/08/23 02:12:48;;;;;;;9.13;7.28;;;;;;;28.78;45.47;99753.09;5093723;28;20016;-41
2023/08/23 02:15:13;;;;;;;9.98;7.53;;;;;;;28.78;45.29;99758.56;5093689;28;20039;-40
2023/08/23 02:17:38;;;;;;;12.30;7.65;;;;;;;28.80;45.20;99756.31;5093428;28;20545;-40
2023/08/23 02:20:05;;;;;;;11.13;7.65;;;;;;;28.78;45.14;99755.81;5093585;28;20473;-40
2023/08/23 02:22:30;;;;;;;10.02;7.47;;;;;;;28.73;45.23;99758.75;5093237;28;20070;-41
2023/08/23 02:24:56;;;;;;;9.38;7.60;;;;;;;28.67;44.98;99751.81;5093391;28;20039;-40
2023/08/23 02:27:21;;;;;;;9.23;7.70;;;;;;;28.54;45.47;99752.81;5093204;28;20118;-40
2023/08/23 02:29:47;;;;;;;10.75;8.10;;;;;;;28.50;45.47;99752.59;5092996;28;20084;-41
2023/08/23 02:32:12;;;;;;;10.50;8.23;;;;;;;28.54;45.30;99747.31;5093351;28;20099;-40
2023/08/23 02:34:38;;;;;;;12.68;8.35;;;;;;;28.55;45.37;99746.22;5093159;28;20024;-40
2023/08/23 02:37:03;;;;;;;9.85;8.32;;;;;;;28.50;45.61;99755.34;5093309;28;20012;-41
2023/08/23 02:39:28;;;;;;;11.68;8.60;;;;;;;28.18;46.21;99749.25;5092979;28;20059;-41
2023/08/23 02:41:54;;;;;;;10.98;8.25;;;;;;;28.21;46.12;99754.06;5093101;28;20012;-41
2023/08/23 02:44:19;;;;;;;12.60;8.18;;;;;;;28.25;46.28;99746.03;5092984;28;20024;-40
2023/08/23 02:46:45;;;;;;;11.40;8.43;;;;;;;28.28;45.93;99753.59;5092781;28;20550;-40
2023/08/23 02:49:10;;;;;;;11.63;8.75;;;;;;;28.35;45.71;99753.94;5092992;28;20028;-39
2023/08/23 02:51:35;;;;;;;9.63;8.18;;;;;;;28.35;45.58;99748.44;5092980;28;20027;-39
2023/08/23 02:54:01;;;;;;;11.45;8.40;;;;;;;28.36;45.52;99752.00;5092787;28;20016;-40
2023/08/23 02:56:26;;;;;;;9.50;8.00;;;;;;;28.38;45.89;99752.47;5092729;28;20020;-40
2023/08/23 02:58:52;;;;;;;14.63;8.30;;;;;;;28.33;46.06;99741.69;5092701;28;20402;-40
2023/08/23 03:01:17;;;;;;;9.52;8.10;;;;;;;28.31;45.90;99746.66;5092301;28;20020;-40
2023/08/23 03:03:42;;;;;;;11.77;8.05;;;;;;;28.35;45.77;99751.19;5092630;28;20027;-41
2023/08/23 03:06:08;;;;;;;12.48;8.00;;;;;;;28.36;45.69;99741.84;5092710;28;20023;-39
2023/08/23 03:08:33;;;;;;;9.48;8.23;;;;;;;28.30;45.68;99748.59;5092500;28;20027;-39
2023/08/23 03:11:06;;;;;;;9.95;8.45;;;;;;;28.21;46.11;99754.06;5092351;28;20031;-39
2023/08/23 03:13:33;;;;;;;9.20;7.63;;;;;;;28.18;46.19;99756.63;5092904;28;20047;-39
2023/08/23 03:16:00;;;;;;;12.02;8.02;;;;;;;28.17;46.38;99758.56;5092381;28;20020;-40
2023/08/23 03:18:26;;;;;;;10.13;8.05;;;;;;;28.02;46.62;99759.03;5092244;28;20028;-39
2023/08/23 03:20:52;;;;;;;11.75;8.20;;;;;;;27.79;47.45;99752.88;5092310;28;20016;-39
2023/08/23 03:23:19;;;;;;;11.35;8.30;;;;;;;27.77;47.56;99757.84;5092141;28;20027;-39
2023/08/23 03:25:46;;;;;;;11.27;8.23;;;;;;;27.70;47.43;99758.31;5091913;28;20384;-39
2023/08/23 03:28:12;;;;;;;9.70;8.00;;;;;;;27.57;47.76;99751.84;5092314;28;20048;-40
2023/08/23 03:30:38;;;;;;;12.60;8.18;;;;;;;27.72;47.31;99756.09;5091709;28;20508;-39
2023/08/23 03:33:05;;;;;;;9.18;7.70;;;;;;;27.70;47.32;99755.56;5092051;28;20031;-38
2023/08/23 03:35:30;;;;;;;9.85;8.00;;;;;;;27.73;47.37;99754.16;5091938;28;20028;-40
2023/08/23 03:37:56;;;;;;;10.35;8.48;;;;;;;27.35;48.32;99751.94;5091849;28;20146;-40
2023/08/23 03:40:21;;;;;;;9.48;8.15;;;;;;;27.32;48.32;99756.09;5091505;28;20036;-39
2023/08/23 03:42:47;;;;;;;13.05;8.10;;;;;;;27.21;48.64;99758.28;5091684;28;20024;-40
2023/08/23 03:45:12;;;;;;;9.68;8.38;;;;;;;27.16;48.69;99758.41;5092076;28;20027;-40
2023/08/23 03:47:38;;;;;;;12.80;8.20;;;;;;;26.97;49.11;99755.91;5091929;28;20503;-40
2023/08/23 03:50:04;;;;;;;9.65;8.43;;;;;;;26.90;49.49;99759.09;5091560;28;20042;-40
2023/08/23 03:52:29;;;;;;;10.70;8.52;;;;;;;27.20;48.70;99753.91;5091793;28;20389;-39
2023/08/23 03:54:55;;;;;;;8.75;7.85;;;;;;;27.37;48.31;99761.41;5091496;28;20028;-40
2023/08/23 03:57:20;;;;;;;10.55;8.25;;;;;;;27.51;48.19;99766.75;5091621;28;20042;-40
2023/08/23 03:59:46;;;;;;;12.65;7.78;;;;;;;27.68;47.85;99766.00;5091473;28;20024;-40
2023/08/23 04:02:11;;;;;;;12.98;8.15;;;;;;;27.60;48.28;99753.94;5091496;28;20024;-37
2023/08/23 04:04:36;;;;;;;11.55;8.68;;;;;;;27.63;48.35;99758.78;5091693;28;20085;-40
2023/08/23 04:07:02;;;;;;;13.07;8.50;;;;;;;27.95;47.60;99754.06;5091456;28;20107;-39
2023/08/23 04:09:29;;;;;;;12.65;8.40;;;;;;;27.94;47.54;99752.44;5091446;28;20023;-39
2023/08/23 04:11:54;;;;;;;10.10;8.20;;;;;;;28.21;47.03;99750.53;5090743;28;20496;-39
2023/08/23 04:14:19;;;;;;;10.07;7.75;;;;;;;28.46;46.66;99755.22;5091463;28;20024;-39
2023/08/23 04:16:45;;;;;;;11.57;8.30;;;;;;;28.35;46.41;99755.84;5091731;28;20028;-38
2023/08/23 04:19:10;;;;;;;12.02;8.40;;;;;;;28.24;46.66;99752.63;5091522;28;20123;-40
2023/08/23 04:21:36;;;;;;;11.63;8.35;;;;;;;28.60;46.04;99751.53;5091475;28;20027;-39
2023/08/23 04:24:01;;;;;;;12.73;8.05;;;;;;;28.73;45.87;99756.03;5091479;28;20020;-39
2023/08/23 04:26:26;;;;;;;9.98;7.65;;;;;;;29.08;45.06;99755.91;5091286;28;20020;-39
2023/08/23 04:28:52;;;;;;;10.30;7.63;;;;;;;29.44;44.24;99760.97;5091181;28;20038;-40
2023/08/23 04:31:18;;;;;;;12.27;8.00;;;;;;;29.67;43.64;99763.44;5090995;28;20047;-41
2023/08/23 04:33:44;;;;;;;12.38;7.93;;;;;;;29.81;43.31;99766.75;5091146;28;20016;-41
2023/08/23 04:36:09;;;;;;;9.90;7.68;;;;;;;29.97;42.97;99757.97;5091234;28;20399;-39
2023/08/23 04:38:35;;;;;;;9.57;7.90;;;;;;;30.09;42.78;99759.97;5090909;28;20056;-40
2023/08/23 04:41:01;;;;;;;10.07;7.57;;;;;;;30.26;42.42;99770.03;5091080;28;20038;-40
2023/08/23 04:43:27;;;;;;;11.50;7.80;;;;;;;30.77;41.00;99773.47;5072588;28;20025;-40
2023/08/23 04:45:54;;;;;;;11.45;7.80;;;;;;;30.82;40.67;99773.25;5090849;28;20475;-39
2023/08/23 04:48:20;;;;;;;10.73;7.70;;;;;;;30.60;40.69;99777.19;5091352;28;20454;-40
2023/08/23 04:50:53;;;;;;;11.82;7.28;;;;;;;30.92;40.12;99772.84;5090797;28;20034;-38
2023/08/23 04:53:19;;;;;;;13.13;7.63;;;;;;;31.26;39.68;99779.06;5090840;28;20026;-39
2023/08/23 04:55:45;;;;;;;10.93;7.20;;;;;;;31.64;39.19;99774.44;5090702;28;20020;-39
2023/08/23 04:58:10;;;;;;;9.88;7.10;;;;;;;32.14;38.43;99774.06;5090467;28;20047;-40
2023/08/23 05:00:35;;;;;;;8.55;7.13;;;;;;;32.55;37.51;99774.03;5090382;28;20418;-41
2023/08/23 05:03:01;;;;;;;9.55;7.35;;;;;;;32.77;37.04;99777.38;5090380;28;20016;-40
2023/08/23 05:05:27;;;;;;;10.60;7.63;;;;;;;33.02;36.77;99767.84;5090319;28;20361;-42
2023/08/23 05:07:52;;;;;;;8.68;7.38;;;;;;;32.98;36.69;99768.91;5090461;28;20024;-39
2023/08/23 05:10:18;;;;;;;10.10;7.47;;;;;;;32.99;36.51;99776.81;5090399;28;20027;-40
2023/08/23 05:12:43;;;;;;;10.70;7.32;;;;;;;33.05;36.76;99767.16;5090368;28;20072;-41
2023/08/23 05:15:09;;;;;;;11.50;7.50;;;;;;;33.50;35.66;99763.13;5090185;28;20020;-40
2023/08/23 05:17:34;;;;;;;8.55;6.68;;;;;;;33.54;35.38;99770.72;5090761;28;20130;-40
2023/08/23 05:20:00;;;;;;;9.40;7.30;;;;;;;33.97;34.83;99774.50;5090390;28;20020;-39
2023/08/23 05:22:25;;;;;;;8.93;7.15;;;;;;;34.20;34.28;99774.63;5090355;28;20024;-40
2023/08/23 05:24:51;;;;;;;10.77;7.30;;;;;;;34.39;33.46;99768.28;5090195;28;20020;-42
2023/08/23 05:27:16;;;;;;;8.73;6.60;;;;;;;34.70;33.07;99764.59;5090062;28;20056;-40
2023/08/23 05:29:42;;;;;;;9.15;7.22;;;;;;;34.94;32.42;99766.22;5090915;28;20433;-41
2023/08/23 05:32:07;;;;;;;9.93;7.13;;;;;;;35.04;32.90;99762.81;5090234;28;20521;-42
2023/08/23 05:34:34;;;;;;;11.18;6.82;;;;;;;35.15;32.78;99760.25;5089939;28;20016;-42
2023/08/23 05:36:59;;;;;;;13.30;7.18;;;;;;;34.87;32.77;99768.06;5090030;28;20051;-41
2023/08/23 05:39:24;;;;;;;12.68;6.97;;;;;;;35.18;32.82;99759.53;5090012;28;20113;-42
2023/08/23 05:41:50;;;;;;;9.35;6.95;;;;;;;35.49;32.22;99756.84;5089894;28;20020;-43
2023/08/23 05:44:15;;;;;;;9.75;7.13;;;;;;;35.61;31.28;99753.88;5090382;28;20082;-41
2023/08/23 05:46:41;;;;;;;9.23;7.43;;;;;;;35.85;31.46;99744.34;5089865;28;20020;-43
2023/08/23 05:49:06;;;;;;;9.63;6.70;;;;;;;35.34;31.92;99753.88;5090101;28;20035;-40
2023/08/23 05:51:31;;;;;;;10.32;7.22;;;;;;;35.95;31.40;99756.78;5089891;28;20020;-41
2023/08/23 05:53:57;;;;;;;9.93;6.85;;;;;;;35.92;31.25;99746.44;5090283;28;20074;-40
2023/08/23 05:56:24;;;;;;;11.73;6.97;;;;;;;36.11;31.14;99751.81;5090173;28;20016;-42
2023/08/23 05:58:49;;;;;;;9.30;6.40;;;;;;;36.23;31.14;99741.72;5089909;28;20342;-41
2023/08/23 06:01:15;;;;;;;9.15;6.85;;;;;;;36.37;30.77;99744.66;5089790;28;20020;-41
2023/08/23 06:03:41;;;;;;;12.38;6.55;;;;;;;36.91;29.90;99745.22;5090106;28;20043;-40
2023/08/23 06:06:07;;;;;;;7.97;6.82;;;;;;;36.26;30.46;99747.28;5090634;28;20023;-42
2023/08/23 06:08:33;;;;;;;9.55;6.40;;;;;;;36.96;29.74;99745.69;5090033;28;20408;-42
2023/08/23 06:10:59;;;;;;;12.23;7.28;;;;;;;37.55;29.06;99742.19;5089849;28;20487;-42
2023/08/23 06:13:24;;;;;;;8.27;6.68;;;;;;;37.85;28.70;99741.19;5090035;28;20031;-42
2023/08/23 06:15:49;;;;;;;9.93;6.57;;;;;;;38.18;27.86;99753.31;5089653;28;20476;-40
2023/08/23 06:18:15;;;;;;;15.98;7.07;;;;;;;37.95;28.38;99748.81;5089512;28;20028;-44
2023/08/23 06:20:43;;;;;;;7.22;5.97;;;;;;;37.92;28.13;99746.78;5089796;28;20162;-41
2023/08/23 06:23:08;;;;;;;8.55;6.40;;;;;;;37.97;28.31;99751.97;5089853;28;20062;-42
2023/08/23 06:25:34;;;;;;;8.50;6.35;;;;;;;38.23;27.87;99756.50;5089717;28;20108;-46
2023/08/23 06:27:59;;;;;;;8.23;6.70;;;;;;;38.43;27.73;99759.72;5089702;28;20154;-47
2023/08/23 06:30:24;;;;;;;9.27;6.03;;;;;;;38.79;26.95;99754.28;5090360;28;20024;-42
2023/08/23 06:32:50;;;;;;;8.32;6.25;;;;;;;38.86;26.51;99768.19;5089650;28;20016;-41
2023/08/23 06:35:16;;;;;;;16.55;8.27;;;;;;;38.95;26.91;99764.22;5091442;28;20399;-44
2023/08/23 06:37:42;;;;;;;13.68;8.95;;;;;;;39.15;26.23;99778.56;5093567;28;20524;-42
2023/08/23 06:40:10;;;;;;;9.73;7.40;;;;;;;39.77;25.87;99769.75;5092934;28;20123;-45
2023/08/23 06:42:36;;;;;;;8.20;6.85;;;;;;;40.01;25.96;99762.56;5093107;28;20027;-44
2023/08/23 06:45:02;;;;;;;10.82;7.93;;;;;;;39.34;26.53;99769.81;5093022;28;20031;-43
2023/08/23 06:47:27;;;;;;;10.93;6.93;;;;;;;39.70;25.77;99775.38;5092907;28;20028;-42
2023/08/23 06:49:53;;;;;;;11.82;6.80;;;;;;;40.41;24.52;99779.94;5093039;28;20041;-44
2023/08/23 06:52:18;;;;;;;9.73;6.57;;;;;;;40.84;24.22;99770.53;5093172;28;20026;-43
2023/08/23 06:54:43;;;;;;;7.65;6.80;;;;;;;41.30;23.98;99777.78;5093180;28;20533;-43
2023/08/23 06:57:09;;;;;;;8.00;6.65;;;;;;;41.54;23.71;99762.00;5092789;28;20028;-42
2023/08/23 06:59:34;;;;;;;8.65;6.70;;;;;;;41.75;23.44;99780.53;5092686;28;20099;-41
2023/08/23 07:02:00;;;;;;;7.22;6.28;;;;;;;41.66;23.79;99773.88;5092422;28;20030;-42
2023/08/23 07:04:25;;;;;;;13.38;6.72;;;;;;;41.85;23.82;99775.25;5092965;28;20123;-42
2023/08/23 07:06:51;;;;;;;7.65;6.40;;;;;;;41.97;23.38;99769.94;5092759;28;20089;-44
2023/08/23 07:09:16;;;;;;;7.38;6.55;;;;;;;42.39;22.93;99776.22;5092577;28;20467;-47
2023/08/23 07:11:41;;;;;;;7.00;6.30;;;;;;;42.74;22.58;99765.75;5092655;28;20024;-43
2023/08/23 07:14:08;;;;;;;9.65;6.40;;;;;;;42.49;22.77;99762.53;5092840;28;20380;-43
2023/08/23 07:16:34;;;;;;;9.25;6.65;;;;;;;42.59;22.36;99761.59;5092501;28;20097;-41
2023/08/23 07:19:02;;;;;;;8.50;6.85;;;;;;;42.58;21.65;99765.59;5092260;28;20450;-42
2023/08/23 07:21:29;;;;;;;8.95;7.32;;;;;;;42.00;22.39;99757.13;5092293;28;20488;-43
2023/08/23 07:23:55;;;;;;;9.00;7.35;;;;;;;42.50;21.86;99761.31;5092134;28;20024;-45
2023/08/23 07:26:20;;;;;;;9.60;7.15;;;;;;;42.92;21.81;99759.13;5092291;28;20049;-42
2023/08/23 07:28:45;;;;;;;8.35;6.80;;;;;;;42.82;22.37;99752.44;5092271;28;20028;-44
2023/08/23 07:31:11;;;;;;;11.20;7.20;;;;;;;42.89;21.97;99757.16;5092455;28;20020;-44
2023/08/23 07:33:36;;;;;;;7.28;6.40;;;;;;;43.00;21.91;99749.41;5092169;28;20028;-44
2023/08/23 07:36:02;;;;;;;7.53;6.47;;;;;;;43.31;21.73;99757.69;5092292;28;20337;-44
2023/08/23 07:38:28;;;;;;;8.65;6.40;;;;;;;43.67;21.26;99757.03;5091997;28;20078;-41
2023/08/23 07:40:58;;;;;;;7.75;6.78;;;;;;;42.84;21.85;99749.22;5092420;28;20020;-44
2023/08/23 07:43:24;;;;;;;9.52;6.75;;;;;;;42.69;22.27;99752.25;5073819;28;20030;-45
2023/08/23 07:45:58;;;;;;;7.70;6.60;;;;;;;43.01;21.96;99750.97;5091122;28;20099;-44
2023/08/23 07:48:24;;;;;;;10.30;6.57;;;;;;;43.59;21.53;99744.38;5091734;28;20598;-44
2023/08/23 07:50:55;;;;;;;7.95;6.95;;;;;;;43.81;20.87;99748.34;5091705;28;20401;-44
2023/08/23 07:53:22;;;;;;;8.45;6.88;;;;;;;43.20;21.28;99751.44;5091917;28;20441;-42
2023/08/23 07:55:48;;;;;;;10.15;6.53;;;;;;;43.07;22.00;99746.47;5091868;28;20049;-43
2023/08/23 07:58:14;;;;;;;12.20;6.82;;;;;;;43.06;21.73;99742.09;5091568;28;20026;-42
2023/08/23 08:00:40;;;;;;;10.07;6.75;;;;;;;43.49;21.39;99735.75;5091928;28;20358;-43
2023/08/23 08:03:06;;;;;;;10.00;6.50;;;;;;;43.72;20.79;99742.56;5091855;28;20025;-41
2023/08/23 08:05:34;;;;;;;10.82;6.63;;;;;;;43.99;21.23;99736.78;5091809;28;20020;-42
2023/08/23 08:08:00;;;;;;;9.52;6.57;;;;;;;44.33;20.89;99734.88;5091837;28;20039;-46
2023/08/23 08:10:26;;;;;;;7.50;6.72;;;;;;;44.56;19.93;99734.78;5091294;28;20032;-45
2023/08/23 08:12:51;;;;;;;8.13;6.90;;;;;;;43.31;20.84;99727.69;5091549;28;20021;-44
2023/08/23 08:15:17;;;;;;;9.30;7.88;;;;;;;42.19;22.55;99720.19;5091327;28;20399;-43
2023/08/23 08:17:43;;;;;;;9.13;7.05;;;;;;;42.26;22.19;99721.31;5091293;28;20356;-42
2023/08/23 08:20:09;;;;;;;9.18;6.60;;;;;;;42.64;22.10;99718.38;5091152;28;20061;-43
2023/08/23 08:22:35;;;;;;;8.40;6.32;;;;;;;43.57;21.29;99721.63;5091162;28;20028;-41
2023/08/23 08:25:01;;;;;;;10.43;6.70;;;;;;;44.01;20.76;99713.94;5091212;28;20019;-45
2023/08/23 08:27:26;;;;;;;6.53;5.85;;;;;;;44.53;19.89;99724.44;5091672;28;20102;-44
2023/08/23 08:29:52;;;;;;;8.68;6.25;;;;;;;45.01;19.95;99717.28;5091470;28;20035;-43
2023/08/23 08:32:17;;;;;;;10.20;6.07;;;;;;;45.14;19.36;99717.34;5091481;28;20051;-43
2023/08/23 08:34:43;;;;;;;9.85;6.22;;;;;;;44.79;19.70;99710.59;5091385;28;20036;-43
2023/08/23 08:37:08;;;;;;;10.82;6.10;;;;;;;44.63;20.26;99717.78;5091278;28;20032;-45
2023/08/23 08:39:33;;;;;;;8.50;5.30;;;;;;;44.37;20.30;99716.00;5090819;28;20072;-43
2023/08/23 08:41:59;;;;;;;7.53;5.72;;;;;;;43.01;20.64;99708.19;5090732;28;20015;-44
2023/08/23 08:44:25;;;;;;;8.40;5.47;;;;;;;42.82;21.02;99713.28;5090697;28;20450;-43
2023/08/23 08:46:51;;;;;;;6.78;5.18;;;;;;;43.21;19.78;99708.25;5090687;28;20027;-44
2023/08/23 08:49:17;;;;;;;5.78;5.18;;;;;;;43.57;19.32;99702.03;5090581;28;20042;-44
2023/08/23 08:51:46;;;;;;;8.07;5.70;;;;;;;43.90;19.77;99695.34;5090790;28;20124;-46
2023/08/23 08:54:15;;;;;;;8.13;5.30;;;;;;;44.41;18.86;99697.06;5090787;28;20016;-43
2023/08/23 08:56:43;;;;;;;6.95;5.07;;;;;;;44.09;19.22;99695.75;5090496;28;20149;-44
2023/08/23 08:59:09;;;;;;;11.02;5.53;;;;;;;43.71;19.99;99687.75;5090361;28;20059;-46
2023/08/23 09:01:36;;;;;;;6.07;5.40;;;;;;;43.13;20.32;99683.19;5090636;28;20034;-47
2023/08/23 09:04:02;;;;;;;7.63;5.63;;;;;;;43.58;20.02;99684.75;5090397;28;20532;-43
2023/08/23 09:06:30;;;;;;;9.10;5.72;;;;;;;43.35;20.38;99671.63;5090351;28;20020;-45
2023/08/23 09:08:56;;;;;;;7.82;5.60;;;;;;;42.86;20.52;99682.44;5090572;28;20476;-42
2023/08/23 09:11:21;;;;;;;6.65;5.63;;;;;;;42.54;20.35;99678.97;5090170;28;20213;-44
2023/08/23 09:13:47;;;;;;;5.68;4.93;;;;;;;43.10;19.87;99664.44;5090424;28;20587;-43
2023/08/23 09:16:14;;;;;;;8.60;5.20;;;;;;;41.26;21.30;99673.78;5089923;28;20028;-44
2023/08/23 09:18:46;;;;;;;7.82;5.32;;;;;;;41.22;21.36;99665.44;5090231;28;20027;-42
2023/08/23 09:21:14;;;;;;;7.43;5.40;;;;;;;41.88;21.17;99669.06;5090138;28;20024;-45
2023/08/23 09:23:40;;;;;;;6.63;5.15;;;;;;;41.87;21.17;99661.09;5090166;28;20027;-44
2023/08/23 09:26:08;;;;;;;6.35;5.28;;;;;;;41.50;21.38;99660.72;5090008;28;20024;-41
2023/08/23 09:28:34;;;;;;;6.35;4.90;;;;;;;40.38;21.74;99672.03;5090143;28;20487;-42
2023/08/23 09:31:00;;;;;;;6.20;4.90;;;;;;;40.09;22.93;99648.34;5090625;28;20024;-43
2023/08/23 09:33:25;;;;;;;6.15;4.97;;;;;;;40.80;21.59;99647.06;5089774;28;20028;-45
2023/08/23 09:35:50;;;;;;;5.45;4.85;;;;;;;40.47;22.04;99649.28;5090217;28;20220;-43
2023/08/23 09:38:22;;;;;;;4.95;4.47;;;;;;;40.37;22.15;99644.59;5089789;28;20028;-45
2023/08/23 09:40:48;;;;;;;6.53;4.78;;;;;;;39.96;21.91;99648.00;5090074;28;20024;-43
2023/08/23 09:43:17;;;;;;;5.50;4.53;;;;;;;40.32;21.92;99645.00;5090012;28;20035;-43
2023/08/23 09:45:44;;;;;;;5.88;4.93;;;;;;;40.08;22.33;99641.97;5090639;28;20603;-44
2023/08/23 09:48:11;;;;;;;5.53;4.60;;;;;;;40.60;21.67;99644.03;5090263;28;20020;-43
2023/08/23 09:50:37;;;;;;;5.88;4.60;;;;;;;40.53;21.87;99639.28;5090187;28;20028;-42
2023/08/23 09:53:15;;;;;;;4.90;4.40;;;;;;;40.35;21.63;99642.22;5090311;28;20031;-41
2023/08/23 09:55:42;;;;;;;;;;;;;;;39.76;22.83;99634.53;5090698;28;20032;-41
2023/08/23 09:58:09;;;;;;;7.03;4.90;;;;;;;38.47;24.09;99635.47;5089823;28;19919;-45
2023/08/23 10:00:34;;;;;;;5.50;5.00;;;;;;;38.91;23.75;99620.41;5089911;28;20074;-44
2023/08/23 10:03:00;;;;;;;6.60;5.13;;;;;;;39.36;23.26;99621.94;5089976;28;20460;-46
2023/08/23 10:05:26;;;;;;;7.07;5.05;;;;;;;40.34;22.35;99625.91;5090078;28;20020;-43
2023/08/23 10:07:56;;;;;;;6.43;4.60;;;;;;;40.61;21.61;99631.66;5090230;28;20024;-41
2023/08/23 10:10:22;;;;;;;7.45;4.28;;;;;;;40.52;20.74;99615.41;5092071;28;20448;-43
2023/08/23 10:12:51;;;;;;;5.20;4.70;;;;;;;39.59;22.27;99625.06;5093969;28;20488;-44
2023/08/23 10:15:21;;;;;;;8.07;7.28;;;;;;;40.04;22.66;99622.50;5093714;28;20089;-43
2023/08/23 10:17:48;;;;;;;5.30;4.40;;;;;;;39.98;22.13;99615.75;5093292;28;20362;-42
2023/08/23 10:20:14;;;;;;;6.82;4.90;;;;;;;40.50;21.90;99625.38;5093289;28;20038;-45
2023/08/23 10:22:40;;;;;;;6.40;4.85;;;;;;;39.10;22.76;99621.19;5093354;28;20028;-43
2023/08/23 10:25:19;;;;;;;4.85;4.35;;;;;;;39.50;22.32;99616.34;5093093;28;20031;-43
2023/08/23 10:27:46;;;;;;;4.88;4.40;;;;;;;39.87;21.99;99609.41;5093073;28;20081;-41
2023/08/23 10:30:30;;;;;;;7.15;4.30;;;;;;;40.50;21.43;99603.06;5092848;28;20114;-43
2023/08/23 10:33:16;;;;;;;8.38;4.32;;;;;;;39.74;21.01;99599.94;5093084;28;20090;-41
2023/08/23 10:35:44;;;;;;;6.22;4.30;;;;;;;40.49;20.84;99607.06;5092552;28;20052;-41
2023/08/23 10:38:10;;;;;;;6.87;4.37;;;;;;;39.49;22.31;99595.28;5092371;28;20042;-42
2023/08/23 10:40:39;;;;;;;5.70;4.35;;;;;;;39.57;22.51;99607.97;5093199;28;20412;-44
2023/08/23 10:43:16;;;;;;;6.65;5.00;;;;;;;39.69;21.92;99596.38;5092859;28;20541;-42
2023/08/23 10:46:10;;;;;;;4.68;3.95;;;;;;;40.86;20.62;99589.66;5092857;28;20032;-40
2023/08/23 10:48:36;;;;;;;5.57;4.32;;;;;;;40.75;21.18;99592.50;5071126;28;20072;-42
2023/08/23 10:51:02;;;;;;;8.27;5.00;;;;;;;40.48;20.67;99597.13;5093052;28;20035;-42
2023/08/23 10:53:28;;;;;;;5.28;4.63;;;;;;;40.16;21.28;99592.56;5092829;28;20341;-43
2023/08/23 10:55:53;;;;;;;5.60;4.63;;;;;;;39.94;21.60;99583.56;5092783;28;20051;-42
2023/08/23 10:58:18;;;;;;;6.53;4.60;;;;;;;40.20;21.37;99577.41;5093296;28;20411;-43
2023/08/23 11:00:50;;;;;;;5.63;4.38;;;;;;;39.63;22.10;99584.06;5092905;28;20020;-42
2023/08/23 11:03:16;;;;;;;5.22;4.35;;;;;;;40.23;21.62;99587.75;5092831;28;20024;-41
2023/08/23 11:05:43;;;;;;;5.53;4.40;;;;;;;40.37;21.04;99577.72;5093243;28;20024;-42
2023/08/23 11:08:09;;;;;;;5.22;4.70;;;;;;;41.01;20.49;99577.13;5093135;28;20035;-42
2023/08/23 11:10:36;;;;;;;4.88;4.43;;;;;;;40.56;20.58;99573.56;5093041;28;20020;-42
2023/08/23 11:13:01;;;;;;;5.28;4.45;;;;;;;39.71;21.60;99565.34;5092296;28;20034;-42
2023/08/23 11:15:27;;;;;;;5.40;4.60;;;;;;;39.19;22.09;99570.72;5092522;28;20016;-42
2023/08/23 11:17:53;;;;;;;6.75;4.82;;;;;;;39.56;21.44;99563.84;5092349;28;20104;-42
2023/08/23 11:20:18;;;;;;;6.65;4.57;;;;;;;39.92;21.67;99555.31;5091348;28;20460;-42
2023/08/23 11:22:45;;;;;;;6.30;4.68;;;;;;;40.51;21.20;99555.28;5091958;28;20103;-44
2023/08/23 11:25:10;;;;;;;5.07;4.57;;;;;;;40.61;21.15;99557.19;5092234;28;20024;-46
2023/08/23 11:27:35;;;;;;;8.63;4.47;;;;;;;41.05;20.02;99543.59;5091997;28;20503;-43
2023/08/23 11:30:02;;;;;;;4.95;4.43;;;;;;;40.99;20.24;99542.47;5091969;28;20028;-50